sensor_id;sensor_type;location;lat;lon;timestamp;P1;durP1;ratioP1;P2;durP2;ratioP2
58926;SDS011;44712;52.530;9.760;2023-02-15T00:00:05;24.63;;;14.52;;
58926;SDS011;44712;52.530;9.760;2023-02-15T00:02:34;24.63;;;14.18;;
58926;SDS011;44712;52.530;9.760;2023-02-15T00:05:01;24.15;;;13.85;;
58926;SDS011;44712;52.530;9.760;2023-02-15T00:07:27;27.63;;;15.27;;
58926;SDS011;44712;52.530;9.760;2023-02-15T00:09:54;25.13;;;13.60;;
58926;SDS011;44712;52.530;9.760;2023-02-15T00:12:21;24.05;;;15.02;;
58926;SDS011;44712;52.530;9.760;2023-02-15T00:14:47;26.45;;;14.43;;
58926;SDS011;44712;52.530;9.760;2023-02-15T00:20:08;26.25;;;13.60;;
58926;SDS011;44712;52.530;9.760;2023-02-15T00:22:35;26.48;;;14.05;;
58926;SDS011;44712;52.530;9.760;2023-02-15T00:25:07;27.98;;;14.15;;
58926;SDS011;44712;52.530;9.760;2023-02-15T00:27:34;22.58;;;14.38;;
58926;SDS011;44712;52.530;9.760;2023-02-15T00:30:01;25.83;;;14.30;;
58926;SDS011;44712;52.530;9.760;2023-02-15T00:32:29;24.40;;;13.65;;
58926;SDS011;44712;52.530;9.760;2023-02-15T00:34:55;22.83;;;13.35;;
58926;SDS011;44712;52.530;9.760;2023-02-15T00:37:24;22.27;;;13.75;;
58926;SDS011;44712;52.530;9.760;2023-02-15T00:39:50;22.48;;;12.82;;
58926;SDS011;44712;52.530;9.760;2023-02-15T00:42:17;23.77;;;13.27;;
58926;SDS011;44712;52.530;9.760;2023-02-15T00:44:44;22.95;;;12.68;;
58926;SDS011;44712;52.530;9.760;2023-02-15T00:47:10;23.25;;;13.25;;
58926;SDS011;44712;52.530;9.760;2023-02-15T00:49:37;24.10;;;12.88;;
58926;SDS011;44712;52.530;9.760;2023-02-15T00:52:03;20.35;;;12.50;;
58926;SDS011;44712;52.530;9.760;2023-02-15T00:54:30;21.85;;;12.70;;
58926;SDS011;44712;52.530;9.760;2023-02-15T00:56:57;19.90;;;12.05;;
58926;SDS011;44712;52.530;9.760;2023-02-15T00:59:25;20.65;;;12.05;;
58926;SDS011;44712;52.530;9.760;2023-02-15T01:01:52;20.02;;;12.68;;
58926;SDS011;44712;52.530;9.760;2023-02-15T01:04:19;23.48;;;13.27;;
58926;SDS011;44712;52.530;9.760;2023-02-15T01:06:46;23.92;;;13.98;;
58926;SDS011;44712;52.530;9.760;2023-02-15T01:09:12;22.00;;;13.73;;
58926;SDS011;44712;52.530;9.760;2023-02-15T01:11:40;25.27;;;14.95;;
58926;SDS011;44712;52.530;9.760;2023-02-15T01:14:06;28.38;;;15.30;;
58926;SDS011;44712;52.530;9.760;2023-02-15T01:16:37;25.02;;;13.27;;
58926;SDS011;44712;52.530;9.760;2023-02-15T01:19:04;27.90;;;14.95;;
58926;SDS011;44712;52.530;9.760;2023-02-15T01:21:32;29.45;;;15.75;;
58926;SDS011;44712;52.530;9.760;2023-02-15T01:24:01;24.50;;;14.32;;
58926;SDS011;44712;52.530;9.760;2023-02-15T01:26:28;26.33;;;14.65;;
58926;SDS011;44712;52.530;9.760;2023-02-15T01:28:57;25.00;;;14.70;;
58926;SDS011;44712;52.530;9.760;2023-02-15T01:31:24;22.25;;;13.55;;
58926;SDS011;44712;52.530;9.760;2023-02-15T01:33:51;23.83;;;14.00;;
58926;SDS011;44712;52.530;9.760;2023-02-15T01:36:21;25.65;;;14.27;;
58926;SDS011;44712;52.530;9.760;2023-02-15T01:38:47;26.50;;;15.38;;
58926;SDS011;44712;52.530;9.760;2023-02-15T01:41:15;23.00;;;14.02;;
58926;SDS011;44712;52.530;9.760;2023-02-15T01:43:59;26.42;;;15.18;;
58926;SDS011;44712;52.530;9.760;2023-02-15T01:46:33;25.48;;;14.73;;
58926;SDS011;44712;52.530;9.760;2023-02-15T01:49:24;28.10;;;14.63;;
58926;SDS011;44712;52.530;9.760;2023-02-15T01:51:52;24.13;;;13.90;;
58926;SDS011;44712;52.530;9.760;2023-02-15T01:54:21;28.73;;;15.25;;
58926;SDS011;44712;52.530;9.760;2023-02-15T01:56:52;25.55;;;14.32;;
58926;SDS011;44712;52.530;9.760;2023-02-15T01:59:24;23.77;;;13.43;;
58926;SDS011;44712;52.530;9.760;2023-02-15T02:01:52;23.10;;;13.70;;
58926;SDS011;44712;52.530;9.760;2023-02-15T02:04:29;23.15;;;13.80;;
58926;SDS011;44712;52.530;9.760;2023-02-15T02:07:01;19.67;;;11.68;;
58926;SDS011;44712;52.530;9.760;2023-02-15T02:09:30;24.55;;;13.82;;
58926;SDS011;44712;52.530;9.760;2023-02-15T02:11:58;24.02;;;12.55;;
58926;SDS011;44712;52.530;9.760;2023-02-15T02:14:25;20.52;;;12.73;;
58926;SDS011;44712;52.530;9.760;2023-02-15T02:17:00;20.83;;;13.18;;
58926;SDS011;44712;52.530;9.760;2023-02-15T02:36:49;16.95;;;10.77;;
58926;SDS011;44712;52.530;9.760;2023-02-15T02:39:30;18.30;;;10.30;;
58926;SDS011;44712;52.530;9.760;2023-02-15T02:45:15;19.67;;;11.82;;
58926;SDS011;44712;52.530;9.760;2023-02-15T02:50:23;20.13;;;12.52;;
58926;SDS011;44712;52.530;9.760;2023-02-15T02:52:53;20.63;;;11.80;;
58926;SDS011;44712;52.530;9.760;2023-02-15T02:55:34;21.40;;;11.85;;
58926;SDS011;44712;52.530;9.760;2023-02-15T02:58:09;20.38;;;11.95;;
58926;SDS011;44712;52.530;9.760;2023-02-15T03:03:56;20.83;;;12.63;;
58926;SDS011;44712;52.530;9.760;2023-02-15T03:06:30;18.52;;;11.55;;
58926;SDS011;44712;52.530;9.760;2023-02-15T03:09:22;24.75;;;13.25;;
58926;SDS011;44712;52.530;9.760;2023-02-15T03:12:00;22.35;;;12.02;;
58926;SDS011;44712;52.530;9.760;2023-02-15T03:14:36;21.95;;;13.55;;
58926;SDS011;44712;52.530;9.760;2023-02-15T03:17:03;27.42;;;13.68;;
58926;SDS011;44712;52.530;9.760;2023-02-15T03:19:33;23.80;;;13.13;;
58926;SDS011;44712;52.530;9.760;2023-02-15T03:22:05;23.92;;;13.10;;
58926;SDS011;44712;52.530;9.760;2023-02-15T03:24:40;23.40;;;13.27;;
58926;SDS011;44712;52.530;9.760;2023-02-15T03:27:12;26.42;;;14.00;;
58926;SDS011;44712;52.530;9.760;2023-02-15T03:29:47;23.15;;;14.23;;
58926;SDS011;44712;52.530;9.760;2023-02-15T03:32:27;24.48;;;13.57;;
58926;SDS011;44712;52.530;9.760;2023-02-15T03:34:57;26.63;;;13.43;;
58926;SDS011;44712;52.530;9.760;2023-02-15T03:40:23;22.95;;;12.68;;
58926;SDS011;44712;52.530;9.760;2023-02-15T03:43:23;21.02;;;12.77;;
58926;SDS011;44712;52.530;9.760;2023-02-15T03:45:56;24.00;;;12.55;;
58926;SDS011;44712;52.530;9.760;2023-02-15T03:48:35;20.35;;;12.02;;
58926;SDS011;44712;52.530;9.760;2023-02-15T03:51:13;22.60;;;11.90;;
58926;SDS011;44712;52.530;9.760;2023-02-15T03:54:02;19.58;;;11.27;;
58926;SDS011;44712;52.530;9.760;2023-02-15T03:56:30;17.38;;;11.93;;
58926;SDS011;44712;52.530;9.760;2023-02-15T03:58:58;18.30;;;11.68;;
58926;SDS011;44712;52.530;9.760;2023-02-15T04:01:48;20.48;;;12.10;;
58926;SDS011;44712;52.530;9.760;2023-02-15T04:07:01;19.17;;;11.27;;
58926;SDS011;44712;52.530;9.760;2023-02-15T04:09:28;19.63;;;10.82;;
58926;SDS011;44712;52.530;9.760;2023-02-15T04:12:14;18.17;;;11.52;;
58926;SDS011;44712;52.530;9.760;2023-02-15T04:14:40;22.02;;;12.20;;
58926;SDS011;44712;52.530;9.760;2023-02-15T04:17:26;20.75;;;11.80;;
58926;SDS011;44712;52.530;9.760;2023-02-15T04:19:52;20.52;;;11.18;;
58926;SDS011;44712;52.530;9.760;2023-02-15T04:22:38;21.08;;;11.77;;
58926;SDS011;44712;52.530;9.760;2023-02-15T04:25:23;16.98;;;11.48;;
58926;SDS011;44712;52.530;9.760;2023-02-15T04:27:51;21.65;;;12.52;;
58926;SDS011;44712;52.530;9.760;2023-02-15T04:30:20;22.23;;;12.77;;
58926;SDS011;44712;52.530;9.760;2023-02-15T04:32:49;21.98;;;12.40;;
58926;SDS011;44712;52.530;9.760;2023-02-15T04:35:18;22.92;;;11.70;;
58926;SDS011;44712;52.530;9.760;2023-02-15T04:37:45;23.60;;;12.20;;
58926;SDS011;44712;52.530;9.760;2023-02-15T04:40:13;22.50;;;13.35;;
58926;SDS011;44712;52.530;9.760;2023-02-15T04:42:46;23.15;;;13.27;;
58926;SDS011;44712;52.530;9.760;2023-02-15T04:45:13;25.50;;;12.77;;
58926;SDS011;44712;52.530;9.760;2023-02-15T04:47:40;21.58;;;13.32;;
58926;SDS011;44712;52.530;9.760;2023-02-15T04:53:01;22.00;;;12.13;;
58926;SDS011;44712;52.530;9.760;2023-02-15T04:55:28;23.85;;;13.18;;
58926;SDS011;44712;52.530;9.760;2023-02-15T04:57:54;22.30;;;13.25;;
58926;SDS011;44712;52.530;9.760;2023-02-15T05:00:21;20.88;;;13.55;;
58926;SDS011;44712;52.530;9.760;2023-02-15T05:02:48;24.85;;;12.75;;
58926;SDS011;44712;52.530;9.760;2023-02-15T05:05:16;23.00;;;12.45;;
58926;SDS011;44712;52.530;9.760;2023-02-15T05:07:42;24.30;;;14.02;;
58926;SDS011;44712;52.530;9.760;2023-02-15T05:10:09;19.40;;;13.35;;
58926;SDS011;44712;52.530;9.760;2023-02-15T05:12:36;24.17;;;12.75;;
58926;SDS011;44712;52.530;9.760;2023-02-15T05:15:05;23.05;;;12.32;;
58926;SDS011;44712;52.530;9.760;2023-02-15T05:17:31;21.17;;;11.75;;
58926;SDS011;44712;52.530;9.760;2023-02-15T05:20:00;26.90;;;13.90;;
58926;SDS011;44712;52.530;9.760;2023-02-15T05:22:31;27.13;;;13.88;;
58926;SDS011;44712;52.530;9.760;2023-02-15T05:24:57;20.95;;;13.02;;
58926;SDS011;44712;52.530;9.760;2023-02-15T05:27:42;22.35;;;13.02;;
58926;SDS011;44712;52.530;9.760;2023-02-15T05:30:35;23.55;;;12.48;;
58926;SDS011;44712;52.530;9.760;2023-02-15T05:33:02;21.10;;;12.55;;
58926;SDS011;44712;52.530;9.760;2023-02-15T05:35:29;22.90;;;12.45;;
58926;SDS011;44712;52.530;9.760;2023-02-15T05:37:56;23.92;;;12.20;;
58926;SDS011;44712;52.530;9.760;2023-02-15T05:40:22;23.13;;;13.07;;
58926;SDS011;44712;52.530;9.760;2023-02-15T05:42:49;15.55;;;10.43;;
58926;SDS011;44712;52.530;9.760;2023-02-15T05:45:15;15.85;;;10.75;;
58926;SDS011;44712;52.530;9.760;2023-02-15T05:47:42;18.35;;;10.70;;
58926;SDS011;44712;52.530;9.760;2023-02-15T05:50:10;19.20;;;11.25;;
58926;SDS011;44712;52.530;9.760;2023-02-15T05:52:37;21.90;;;12.73;;
58926;SDS011;44712;52.530;9.760;2023-02-15T05:55:04;23.63;;;13.25;;
58926;SDS011;44712;52.530;9.760;2023-02-15T05:57:31;21.88;;;12.90;;
58926;SDS011;44712;52.530;9.760;2023-02-15T05:59:58;27.10;;;13.52;;
58926;SDS011;44712;52.530;9.760;2023-02-15T06:02:25;21.67;;;12.43;;
58926;SDS011;44712;52.530;9.760;2023-02-15T06:04:51;23.33;;;13.45;;
58926;SDS011;44712;52.530;9.760;2023-02-15T06:07:18;26.20;;;13.25;;
58926;SDS011;44712;52.530;9.760;2023-02-15T06:09:44;21.55;;;12.32;;
58926;SDS011;44712;52.530;9.760;2023-02-15T06:12:11;22.55;;;13.90;;
58926;SDS011;44712;52.530;9.760;2023-02-15T06:14:38;29.52;;;14.60;;
58926;SDS011;44712;52.530;9.760;2023-02-15T06:17:05;24.50;;;13.43;;
58926;SDS011;44712;52.530;9.760;2023-02-15T06:19:31;23.55;;;12.27;;
58926;SDS011;44712;52.530;9.760;2023-02-15T06:21:58;27.20;;;14.50;;
58926;SDS011;44712;52.530;9.760;2023-02-15T06:24:25;24.50;;;13.05;;
58926;SDS011;44712;52.530;9.760;2023-02-15T06:26:51;29.00;;;14.65;;
58926;SDS011;44712;52.530;9.760;2023-02-15T06:29:18;24.27;;;13.20;;
58926;SDS011;44712;52.530;9.760;2023-02-15T06:31:45;26.45;;;14.13;;
58926;SDS011;44712;52.530;9.760;2023-02-15T06:34:12;25.33;;;13.65;;
58926;SDS011;44712;52.530;9.760;2023-02-15T06:36:39;25.52;;;13.88;;
58926;SDS011;44712;52.530;9.760;2023-02-15T06:39:05;27.38;;;13.73;;
58926;SDS011;44712;52.530;9.760;2023-02-15T06:41:32;21.90;;;11.98;;
58926;SDS011;44712;52.530;9.760;2023-02-15T06:43:59;27.13;;;13.73;;
58926;SDS011;44712;52.530;9.760;2023-02-15T06:46:26;23.13;;;12.80;;
58926;SDS011;44712;52.530;9.760;2023-02-15T06:48:53;25.02;;;14.23;;
58926;SDS011;44712;52.530;9.760;2023-02-15T06:51:19;21.75;;;13.75;;
58926;SDS011;44712;52.530;9.760;2023-02-15T06:53:46;24.67;;;12.80;;
58926;SDS011;44712;52.530;9.760;2023-02-15T06:56:13;26.45;;;14.15;;
58926;SDS011;44712;52.530;9.760;2023-02-15T06:58:40;25.95;;;13.93;;
58926;SDS011;44712;52.530;9.760;2023-02-15T07:01:07;22.58;;;12.68;;
58926;SDS011;44712;52.530;9.760;2023-02-15T07:03:35;23.75;;;12.40;;
58926;SDS011;44712;52.530;9.760;2023-02-15T07:06:02;25.98;;;13.07;;
58926;SDS011;44712;52.530;9.760;2023-02-15T07:08:35;26.75;;;13.85;;
58926;SDS011;44712;52.530;9.760;2023-02-15T07:11:02;26.50;;;13.38;;
58926;SDS011;44712;52.530;9.760;2023-02-15T07:13:48;29.95;;;15.82;;
58926;SDS011;44712;52.530;9.760;2023-02-15T07:16:16;27.98;;;13.98;;
58926;SDS011;44712;52.530;9.760;2023-02-15T07:18:42;24.92;;;13.07;;
58926;SDS011;44712;52.530;9.760;2023-02-15T07:21:09;23.13;;;14.02;;
58926;SDS011;44712;52.530;9.760;2023-02-15T07:23:36;23.55;;;13.25;;
58926;SDS011;44712;52.530;9.760;2023-02-15T07:26:04;25.92;;;14.25;;
58926;SDS011;44712;52.530;9.760;2023-02-15T07:28:32;26.23;;;14.70;;
58926;SDS011;44712;52.530;9.760;2023-02-15T07:31:03;21.90;;;12.68;;
58926;SDS011;44712;52.530;9.760;2023-02-15T07:33:31;21.30;;;12.38;;
58926;SDS011;44712;52.530;9.760;2023-02-15T07:35:59;26.98;;;13.13;;
58926;SDS011;44712;52.530;9.760;2023-02-15T07:38:29;29.35;;;15.13;;
58926;SDS011;44712;52.530;9.760;2023-02-15T07:41:00;25.67;;;14.25;;
58926;SDS011;44712;52.530;9.760;2023-02-15T07:43:28;28.67;;;14.05;;
58926;SDS011;44712;52.530;9.760;2023-02-15T07:46:02;25.00;;;13.18;;
58926;SDS011;44712;52.530;9.760;2023-02-15T07:48:31;24.00;;;13.32;;
58926;SDS011;44712;52.530;9.760;2023-02-15T07:50:58;22.52;;;13.32;;
58926;SDS011;44712;52.530;9.760;2023-02-15T07:53:29;27.77;;;14.40;;
58926;SDS011;44712;52.530;9.760;2023-02-15T07:55:58;27.23;;;14.60;;
58926;SDS011;44712;52.530;9.760;2023-02-15T07:58:27;28.10;;;14.88;;
58926;SDS011;44712;52.530;9.760;2023-02-15T08:01:15;31.50;;;15.73;;
58926;SDS011;44712;52.530;9.760;2023-02-15T08:03:44;23.65;;;14.02;;
58926;SDS011;44712;52.530;9.760;2023-02-15T08:06:10;32.50;;;16.00;;
58926;SDS011;44712;52.530;9.760;2023-02-15T08:08:40;30.48;;;14.82;;
58926;SDS011;44712;52.530;9.760;2023-02-15T08:14:18;26.60;;;13.80;;
58926;SDS011;44712;52.530;9.760;2023-02-15T08:19:20;30.45;;;16.10;;
58926;SDS011;44712;52.530;9.760;2023-02-15T08:21:49;34.28;;;16.25;;
58926;SDS011;44712;52.530;9.760;2023-02-15T08:24:19;31.17;;;17.20;;
58926;SDS011;44712;52.530;9.760;2023-02-15T08:26:47;28.73;;;16.63;;
58926;SDS011;44712;52.530;9.760;2023-02-15T08:29:15;33.58;;;16.70;;
58926;SDS011;44712;52.530;9.760;2023-02-15T08:31:44;32.05;;;17.67;;
58926;SDS011;44712;52.530;9.760;2023-02-15T08:34:13;28.33;;;15.93;;
58926;SDS011;44712;52.530;9.760;2023-02-15T08:36:42;34.70;;;17.05;;
58926;SDS011;44712;52.530;9.760;2023-02-15T08:39:11;31.08;;;16.58;;
58926;SDS011;44712;52.530;9.760;2023-02-15T08:41:39;27.85;;;15.30;;
58926;SDS011;44712;52.530;9.760;2023-02-15T08:44:08;31.30;;;16.92;;
58926;SDS011;44712;52.530;9.760;2023-02-15T08:46:37;30.63;;;17.17;;
58926;SDS011;44712;52.530;9.760;2023-02-15T08:49:05;28.85;;;17.50;;
58926;SDS011;44712;52.530;9.760;2023-02-15T08:51:34;26.23;;;17.40;;
58926;SDS011;44712;52.530;9.760;2023-02-15T08:54:03;34.40;;;18.92;;
58926;SDS011;44712;52.530;9.760;2023-02-15T08:56:34;36.10;;;20.40;;
58926;SDS011;44712;52.530;9.760;2023-02-15T08:59:03;32.33;;;17.90;;
58926;SDS011;44712;52.530;9.760;2023-02-15T09:01:31;35.75;;;18.30;;
58926;SDS011;44712;52.530;9.760;2023-02-15T09:04:00;34.28;;;17.38;;
58926;SDS011;44712;52.530;9.760;2023-02-15T09:06:28;32.78;;;18.20;;
58926;SDS011;44712;52.530;9.760;2023-02-15T09:09:00;32.70;;;18.83;;
58926;SDS011;44712;52.530;9.760;2023-02-15T09:11:27;32.00;;;17.75;;
58926;SDS011;44712;52.530;9.760;2023-02-15T09:13:59;31.15;;;18.42;;
58926;SDS011;44712;52.530;9.760;2023-02-15T09:16:29;33.58;;;18.02;;
58926;SDS011;44712;52.530;9.760;2023-02-15T09:18:58;34.67;;;19.25;;
58926;SDS011;44712;52.530;9.760;2023-02-15T09:21:25;38.60;;;19.23;;
58926;SDS011;44712;52.530;9.760;2023-02-15T09:23:55;31.50;;;17.02;;
58926;SDS011;44712;52.530;9.760;2023-02-15T09:28:56;30.73;;;16.42;;
58926;SDS011;44712;52.530;9.760;2023-02-15T09:31:25;30.55;;;17.75;;
58926;SDS011;44712;52.530;9.760;2023-02-15T09:33:54;30.95;;;16.77;;
58926;SDS011;44712;52.530;9.760;2023-02-15T09:36:29;28.23;;;15.55;;
58926;SDS011;44712;52.530;9.760;2023-02-15T09:41:43;32.15;;;16.90;;
58926;SDS011;44712;52.530;9.760;2023-02-15T09:53:36;36.35;;;18.45;;
58926;SDS011;44712;52.530;9.760;2023-02-15T09:56:05;27.95;;;15.00;;
58926;SDS011;44712;52.530;9.760;2023-02-15T10:01:36;24.00;;;14.75;;
58926;SDS011;44712;52.530;9.760;2023-02-15T10:04:26;27.65;;;14.68;;
58926;SDS011;44712;52.530;9.760;2023-02-15T10:18:53;28.17;;;14.63;;
58926;SDS011;44712;52.530;9.760;2023-02-15T10:21:43;28.98;;;15.27;;
58926;SDS011;44712;52.530;9.760;2023-02-15T10:27:13;27.92;;;15.73;;
58926;SDS011;44712;52.530;9.760;2023-02-15T10:29:52;25.70;;;15.30;;
58926;SDS011;44712;52.530;9.760;2023-02-15T10:33:13;28.27;;;17.85;;
58926;SDS011;44712;52.530;9.760;2023-02-15T10:35:49;26.85;;;15.32;;
58926;SDS011;44712;52.530;9.760;2023-02-15T10:38:40;25.70;;;15.43;;
58926;SDS011;44712;52.530;9.760;2023-02-15T10:41:20;25.52;;;13.45;;
58926;SDS011;44712;52.530;9.760;2023-02-15T10:44:17;23.77;;;13.82;;
58926;SDS011;44712;52.530;9.760;2023-02-15T10:55:52;22.95;;;14.35;;
58926;SDS011;44712;52.530;9.760;2023-02-15T11:01:33;26.05;;;16.05;;
58926;SDS011;44712;52.530;9.760;2023-02-15T11:06:53;23.23;;;15.10;;
58926;SDS011;44712;52.530;9.760;2023-02-15T11:09:24;23.70;;;14.60;;
58926;SDS011;44712;52.530;9.760;2023-02-15T11:11:56;24.42;;;16.25;;
58926;SDS011;44712;52.530;9.760;2023-02-15T11:17:06;24.15;;;14.45;;
58926;SDS011;44712;52.530;9.760;2023-02-15T11:19:42;24.48;;;13.63;;
58926;SDS011;44712;52.530;9.760;2023-02-15T11:22:34;23.38;;;14.52;;
58926;SDS011;44712;52.530;9.760;2023-02-15T11:25:02;23.08;;;14.07;;
58926;SDS011;44712;52.530;9.760;2023-02-15T11:27:42;22.02;;;13.40;;
58926;SDS011;44712;52.530;9.760;2023-02-15T11:30:17;25.92;;;13.82;;
58926;SDS011;44712;52.530;9.760;2023-02-15T11:32:46;23.98;;;13.43;;
58926;SDS011;44712;52.530;9.760;2023-02-15T11:35:26;22.83;;;13.07;;
58926;SDS011;44712;52.530;9.760;2023-02-15T11:38:01;31.58;;;13.65;;
58926;SDS011;44712;52.530;9.760;2023-02-15T11:40:41;22.20;;;13.07;;
58926;SDS011;44712;52.530;9.760;2023-02-15T11:45:49;23.25;;;14.77;;
58926;SDS011;44712;52.530;9.760;2023-02-15T11:48:16;22.55;;;14.07;;
58926;SDS011;44712;52.530;9.760;2023-02-15T11:50:44;25.00;;;14.35;;
58926;SDS011;44712;52.530;9.760;2023-02-15T11:53:18;20.33;;;12.70;;
58926;SDS011;44712;52.530;9.760;2023-02-15T11:55:52;23.75;;;13.45;;
58926;SDS011;44712;52.530;9.760;2023-02-15T11:58:27;23.73;;;13.77;;
58926;SDS011;44712;52.530;9.760;2023-02-15T12:01:12;23.58;;;13.35;;
58926;SDS011;44712;52.530;9.760;2023-02-15T12:03:46;20.73;;;12.85;;
58926;SDS011;44712;52.530;9.760;2023-02-15T12:06:17;24.25;;;13.95;;
58926;SDS011;44712;52.530;9.760;2023-02-15T12:26:25;24.75;;;13.65;;
58926;SDS011;44712;52.530;9.760;2023-02-15T12:28:58;20.20;;;12.57;;
58926;SDS011;44712;52.530;9.760;2023-02-15T12:31:31;21.52;;;13.65;;
58926;SDS011;44712;52.530;9.760;2023-02-15T12:34:03;21.83;;;12.60;;
58926;SDS011;44712;52.530;9.760;2023-02-15T12:36:40;20.40;;;13.23;;
58926;SDS011;44712;52.530;9.760;2023-02-15T12:41:38;22.70;;;12.90;;
58926;SDS011;44712;52.530;9.760;2023-02-15T12:44:19;25.15;;;14.15;;
58926;SDS011;44712;52.530;9.760;2023-02-15T12:47:17;21.08;;;14.23;;
58926;SDS011;44712;52.530;9.760;2023-02-15T12:50:04;19.85;;;13.20;;
58926;SDS011;44712;52.530;9.760;2023-02-15T12:52:47;23.38;;;14.65;;
58926;SDS011;44712;52.530;9.760;2023-02-15T12:55:21;21.73;;;13.90;;
58926;SDS011;44712;52.530;9.760;2023-02-15T12:57:58;20.95;;;13.98;;
58926;SDS011;44712;52.530;9.760;2023-02-15T13:00:43;19.63;;;12.60;;
58926;SDS011;44712;52.530;9.760;2023-02-15T13:03:17;21.17;;;13.35;;
58926;SDS011;44712;52.530;9.760;2023-02-15T13:05:48;20.38;;;13.77;;
58926;SDS011;44712;52.530;9.760;2023-02-15T13:08:19;23.23;;;14.02;;
58926;SDS011;44712;52.530;9.760;2023-02-15T13:11:02;21.33;;;13.30;;
58926;SDS011;44712;52.530;9.760;2023-02-15T13:13:33;19.75;;;13.23;;
58926;SDS011;44712;52.530;9.760;2023-02-15T13:16:02;20.50;;;13.88;;
58926;SDS011;44712;52.530;9.760;2023-02-15T13:18:34;23.05;;;14.75;;
58926;SDS011;44712;52.530;9.760;2023-02-15T13:21:15;24.02;;;14.65;;
58926;SDS011;44712;52.530;9.760;2023-02-15T13:23:46;23.75;;;14.18;;
58926;SDS011;44712;52.530;9.760;2023-02-15T13:26:18;19.95;;;13.45;;
58926;SDS011;44712;52.530;9.760;2023-02-15T13:28:54;22.30;;;14.35;;
58926;SDS011;44712;52.530;9.760;2023-02-15T13:31:26;19.83;;;13.85;;
58926;SDS011;44712;52.530;9.760;2023-02-15T13:33:58;21.98;;;13.73;;
58926;SDS011;44712;52.530;9.760;2023-02-15T13:36:49;19.50;;;13.27;;
58926;SDS011;44712;52.530;9.760;2023-02-15T13:40:07;20.67;;;14.00;;
58926;SDS011;44712;52.530;9.760;2023-02-15T13:42:22;21.35;;;13.27;;
58926;SDS011;44712;52.530;9.760;2023-02-15T13:48:07;20.70;;;13.30;;
58926;SDS011;44712;52.530;9.760;2023-02-15T13:56:12;19.38;;;12.85;;
58926;SDS011;44712;52.530;9.760;2023-02-15T13:58:57;17.80;;;13.27;;
58926;SDS011;44712;52.530;9.760;2023-02-15T14:01:45;25.95;;;14.52;;
58926;SDS011;44712;52.530;9.760;2023-02-15T14:04:20;22.48;;;13.82;;
58926;SDS011;44712;52.530;9.760;2023-02-15T14:15:43;21.45;;;12.57;;
58926;SDS011;44712;52.530;9.760;2023-02-15T14:23:27;20.60;;;12.77;;
58926;SDS011;44712;52.530;9.760;2023-02-15T14:25:59;19.65;;;12.52;;
58926;SDS011;44712;52.530;9.760;2023-02-15T14:28:34;20.92;;;13.85;;
58926;SDS011;44712;52.530;9.760;2023-02-15T14:31:11;20.08;;;12.43;;
58926;SDS011;44712;52.530;9.760;2023-02-15T14:33:40;21.83;;;13.25;;
58926;SDS011;44712;52.530;9.760;2023-02-15T14:36:15;19.08;;;12.15;;
58926;SDS011;44712;52.530;9.760;2023-02-15T14:41:37;15.68;;;11.43;;
58926;SDS011;44712;52.530;9.760;2023-02-15T14:47:17;19.60;;;11.80;;
58926;SDS011;44712;52.530;9.760;2023-02-15T14:49:52;20.35;;;12.48;;
58926;SDS011;44712;52.530;9.760;2023-02-15T14:52:18;19.98;;;12.68;;
58926;SDS011;44712;52.530;9.760;2023-02-15T14:59:40;20.45;;;12.18;;
58926;SDS011;44712;52.530;9.760;2023-02-15T15:05:01;17.00;;;11.65;;
58926;SDS011;44712;52.530;9.760;2023-02-15T15:07:47;21.83;;;13.52;;
58926;SDS011;44712;52.530;9.760;2023-02-15T15:12:54;21.08;;;12.52;;
58926;SDS011;44712;52.530;9.760;2023-02-15T15:17:55;21.38;;;13.18;;
58926;SDS011;44712;52.530;9.760;2023-02-15T15:25:48;19.48;;;12.20;;
58926;SDS011;44712;52.530;9.760;2023-02-15T15:31:04;17.13;;;11.68;;
58926;SDS011;44712;52.530;9.760;2023-02-15T15:43:31;17.70;;;12.68;;
58926;SDS011;44712;52.530;9.760;2023-02-15T15:48:32;19.33;;;12.43;;
58926;SDS011;44712;52.530;9.760;2023-02-15T15:53:42;21.75;;;13.10;;
58926;SDS011;44712;52.530;9.760;2023-02-15T15:56:15;20.60;;;12.10;;
58926;SDS011;44712;52.530;9.760;2023-02-15T15:58:48;16.83;;;11.80;;
58926;SDS011;44712;52.530;9.760;2023-02-15T16:01:26;20.23;;;13.25;;
58926;SDS011;44712;52.530;9.760;2023-02-15T16:03:56;18.90;;;12.60;;
58926;SDS011;44712;52.530;9.760;2023-02-15T16:08:55;21.15;;;12.38;;
58926;SDS011;44712;52.530;9.760;2023-02-15T16:11:22;21.23;;;13.13;;
58926;SDS011;44712;52.530;9.760;2023-02-15T16:13:51;19.00;;;11.93;;
58926;SDS011;44712;52.530;9.760;2023-02-15T16:16:24;18.50;;;11.82;;
58926;SDS011;44712;52.530;9.760;2023-02-15T16:18:55;18.10;;;11.57;;
58926;SDS011;44712;52.530;9.760;2023-02-15T16:21:31;21.23;;;13.43;;
58926;SDS011;44712;52.530;9.760;2023-02-15T16:29:14;24.42;;;17.52;;
58926;SDS011;44712;52.530;9.760;2023-02-15T16:31:42;23.02;;;14.45;;
58926;SDS011;44712;52.530;9.760;2023-02-15T16:34:09;26.65;;;18.13;;
58926;SDS011;44712;52.530;9.760;2023-02-15T16:36:43;29.67;;;21.42;;
58926;SDS011;44712;52.530;9.760;2023-02-15T16:39:16;33.50;;;23.08;;
58926;SDS011;44712;52.530;9.760;2023-02-15T16:41:48;32.65;;;23.75;;
58926;SDS011;44712;52.530;9.760;2023-02-15T16:44:20;28.13;;;17.13;;
58926;SDS011;44712;52.530;9.760;2023-02-15T16:46:49;22.25;;;15.13;;
58926;SDS011;44712;52.530;9.760;2023-02-15T16:49:27;20.42;;;13.77;;
58926;SDS011;44712;52.530;9.760;2023-02-15T16:51:59;24.17;;;14.90;;
58926;SDS011;44712;52.530;9.760;2023-02-15T16:54:28;25.25;;;19.30;;
58926;SDS011;44712;52.530;9.760;2023-02-15T16:56:57;25.75;;;17.45;;
58926;SDS011;44712;52.530;9.760;2023-02-15T17:01:57;29.27;;;19.10;;
58926;SDS011;44712;52.530;9.760;2023-02-15T17:09:32;23.50;;;15.70;;
58926;SDS011;44712;52.530;9.760;2023-02-15T17:12:00;28.60;;;18.05;;
58926;SDS011;44712;52.530;9.760;2023-02-15T17:14:31;26.83;;;17.77;;
58926;SDS011;44712;52.530;9.760;2023-02-15T17:17:07;27.05;;;17.88;;
58926;SDS011;44712;52.530;9.760;2023-02-15T17:19:44;24.25;;;15.80;;
58926;SDS011;44712;52.530;9.760;2023-02-15T17:22:17;22.90;;;15.93;;
58926;SDS011;44712;52.530;9.760;2023-02-15T17:24:50;21.05;;;13.27;;
58926;SDS011;44712;52.530;9.760;2023-02-15T17:27:25;21.92;;;13.65;;
58926;SDS011;44712;52.530;9.760;2023-02-15T17:29:55;23.60;;;16.90;;
58926;SDS011;44712;52.530;9.760;2023-02-15T17:32:26;25.40;;;17.05;;
58926;SDS011;44712;52.530;9.760;2023-02-15T17:37:24;20.85;;;13.73;;
58926;SDS011;44712;52.530;9.760;2023-02-15T17:39:53;22.98;;;14.50;;
58926;SDS011;44712;52.530;9.760;2023-02-15T17:42:21;23.70;;;14.82;;
58926;SDS011;44712;52.530;9.760;2023-02-15T17:44:47;22.83;;;13.60;;
58926;SDS011;44712;52.530;9.760;2023-02-15T17:47:15;23.77;;;14.05;;
58926;SDS011;44712;52.530;9.760;2023-02-15T17:49:45;24.42;;;15.43;;
58926;SDS011;44712;52.530;9.760;2023-02-15T17:52:16;21.65;;;13.23;;
58926;SDS011;44712;52.530;9.760;2023-02-15T17:54:44;25.02;;;14.43;;
58926;SDS011;44712;52.530;9.760;2023-02-15T17:57:30;27.88;;;16.17;;
58926;SDS011;44712;52.530;9.760;2023-02-15T17:59:58;29.10;;;16.85;;
58926;SDS011;44712;52.530;9.760;2023-02-15T18:02:44;24.40;;;15.55;;
58926;SDS011;44712;52.530;9.760;2023-02-15T18:05:31;27.20;;;14.98;;